Lude, Minnesota
Current Conditions -  °F | °C
As of 12:53 PM on Friday 21 Nov 2014 (Local Time) from KBDE Reporting Station
Clear Clear  
Wind Chill: 14°   Ceiling: Unl
Heat Index: 27°   Visibility: 10mi
Dew Point: 17°   Wind: 18mph
Humidity: 66%   Direction: 190°S
Pressure: 29.69"   Gusts: 26mph
Location:  48.7484°N, 94.9438°W
Report Text: KBDE 211853Z AUTO 19016G23KT 10SM CLR M03/M08 A2969 RMK AO2 SLP076 T10281083 TSNO
Loading
Personal Weather Stations






























Interactive Weather Map New forecast layout! Learn more

10-Day Weather Forecast

Advertisements
Track Severe Weather on mobile